sensor_id;sensor_type;location;lat;lon;timestamp;pressure;altitude;pressure_sealevel;temperature;humidity
72855;BME280;60991;51.278;22.550;2023-01-26T00:01:29;100013.81;;;3.73;63.09
72855;BME280;60991;51.278;22.550;2023-01-26T00:02:59;100012.81;;;3.74;62.98
72855;BME280;60991;51.278;22.550;2023-01-26T00:04:29;100007.91;;;3.71;63.36
72855;BME280;60991;51.278;22.550;2023-01-26T00:06:04;100013.53;;;3.68;63.27
72855;BME280;60991;51.278;22.550;2023-01-26T00:07:35;100011.81;;;3.75;63.20
72855;BME280;60991;51.278;22.550;2023-01-26T00:09:05;100010.09;;;3.68;63.31
72855;BME280;60991;51.278;22.550;2023-01-26T00:10:36;100009.38;;;3.74;62.67
72855;BME280;60991;51.278;22.550;2023-01-26T00:12:07;100005.22;;;3.79;62.91
72855;BME280;60991;51.278;22.550;2023-01-26T00:13:37;100007.13;;;3.71;62.42
72855;BME280;60991;51.278;22.550;2023-01-26T00:15:08;100011.97;;;3.59;62.94
72855;BME280;60991;51.278;22.550;2023-01-26T00:16:38;100017.84;;;3.61;62.84
72855;BME280;60991;51.278;22.550;2023-01-26T00:18:08;100009.09;;;3.69;62.88
72855;BME280;60991;51.278;22.550;2023-01-26T00:19:38;100003.22;;;3.67;62.49
72855;BME280;60991;51.278;22.550;2023-01-26T00:21:14;100001.28;;;3.61;63.33
72855;BME280;60991;51.278;22.550;2023-01-26T00:22:45;100003.03;;;3.68;62.82
72855;BME280;60991;51.278;22.550;2023-01-26T00:24:15;100006.47;;;3.69;62.91
72855;BME280;60991;51.278;22.550;2023-01-26T00:25:45;100008.94;;;3.70;62.59
72855;BME280;60991;51.278;22.550;2023-01-26T00:27:15;100003.94;;;3.75;62.47
72855;BME280;60991;51.278;22.550;2023-01-26T00:28:46;100008.19;;;3.76;62.70
72855;BME280;60991;51.278;22.550;2023-01-26T00:30:16;100013.91;;;3.65;62.51
72855;BME280;60991;51.278;22.550;2023-01-26T00:31:47;100014.53;;;3.67;62.55
72855;BME280;60991;51.278;22.550;2023-01-26T00:33:17;100006.31;;;3.70;62.64
72855;BME280;60991;51.278;22.550;2023-01-26T00:34:47;100008.03;;;3.78;62.47
72855;BME280;60991;51.278;22.550;2023-01-26T00:36:18;100004.03;;;3.67;62.29
72855;BME280;60991;51.278;22.550;2023-01-26T00:37:49;100006.66;;;3.67;61.72
72855;BME280;60991;51.278;22.550;2023-01-26T00:39:19;100001.06;;;3.70;61.86
72855;BME280;60991;51.278;22.550;2023-01-26T00:40:49;99996.84;;;3.61;61.80
72855;BME280;60991;51.278;22.550;2023-01-26T00:42:20;99991.59;;;3.61;61.91
72855;BME280;60991;51.278;22.550;2023-01-26T00:43:50;99990.06;;;3.52;61.94
72855;BME280;60991;51.278;22.550;2023-01-26T00:45:21;99995.22;;;3.60;62.16
72855;BME280;60991;51.278;22.550;2023-01-26T00:46:51;99993.53;;;3.67;61.80
72855;BME280;60991;51.278;22.550;2023-01-26T00:48:21;99993.72;;;3.66;61.80
72855;BME280;60991;51.278;22.550;2023-01-26T00:49:51;99989.34;;;3.73;62.02
72855;BME280;60991;51.278;22.550;2023-01-26T00:51:21;99980.13;;;3.62;62.00
72855;BME280;60991;51.278;22.550;2023-01-26T00:52:52;99979.94;;;3.64;62.02
72855;BME280;60991;51.278;22.550;2023-01-26T00:54:22;99982.38;;;3.65;61.81
72855;BME280;60991;51.278;22.550;2023-01-26T00:55:52;99974.59;;;3.72;61.75
72855;BME280;60991;51.278;22.550;2023-01-26T00:57:22;99978.13;;;3.64;62.03
72855;BME280;60991;51.278;22.550;2023-01-26T00:58:52;99976.66;;;3.62;61.69
72855;BME280;60991;51.278;22.550;2023-01-26T01:00:23;99982.38;;;3.65;61.98
72855;BME280;60991;51.278;22.550;2023-01-26T01:01:54;99973.53;;;3.66;62.02
72855;BME280;60991;51.278;22.550;2023-01-26T01:03:24;99979.91;;;3.49;62.14
72855;BME280;60991;51.278;22.550;2023-01-26T01:04:54;99976.72;;;3.54;61.90
72855;BME280;60991;51.278;22.550;2023-01-26T01:06:24;99982.28;;;3.59;61.53
72855;BME280;60991;51.278;22.550;2023-01-26T01:07:55;99977.78;;;3.67;61.70
72855;BME280;60991;51.278;22.550;2023-01-26T01:09:25;99976.97;;;3.67;62.12
72855;BME280;60991;51.278;22.550;2023-01-26T01:11:07;99979.94;;;3.64;61.65
72855;BME280;60991;51.278;22.550;2023-01-26T01:12:37;99986.88;;;3.57;61.66
72855;BME280;60991;51.278;22.550;2023-01-26T01:14:08;99973.94;;;3.55;61.63
72855;BME280;60991;51.278;22.550;2023-01-26T01:15:39;99969.75;;;3.46;61.21
72855;BME280;60991;51.278;22.550;2023-01-26T01:17:09;99968.31;;;3.21;61.91
72855;BME280;60991;51.278;22.550;2023-01-26T01:18:39;99967.22;;;3.15;61.68
72855;BME280;60991;51.278;22.550;2023-01-26T01:20:10;99966.16;;;3.24;61.53
72855;BME280;60991;51.278;22.550;2023-01-26T01:21:41;99969.16;;;3.36;61.44
72855;BME280;60991;51.278;22.550;2023-01-26T01:23:11;99977.81;;;3.44;61.58
72855;BME280;60991;51.278;22.550;2023-01-26T01:24:41;99967.47;;;3.43;61.39
72855;BME280;60991;51.278;22.550;2023-01-26T01:26:13;99972.63;;;3.36;61.01
72855;BME280;60991;51.278;22.550;2023-01-26T01:27:43;99970.06;;;3.51;61.17
72855;BME280;60991;51.278;22.550;2023-01-26T01:29:14;99966.34;;;3.60;60.79
72855;BME280;60991;51.278;22.550;2023-01-26T01:30:44;99958.59;;;3.67;61.21
72855;BME280;60991;51.278;22.550;2023-01-26T01:32:14;99959.19;;;3.54;61.16
72855;BME280;60991;51.278;22.550;2023-01-26T01:33:44;99956.03;;;3.59;60.79
72855;BME280;60991;51.278;22.550;2023-01-26T01:35:15;99961.56;;;3.64;60.67
72855;BME280;60991;51.278;22.550;2023-01-26T01:36:45;99964.16;;;3.49;61.01
72855;BME280;60991;51.278;22.550;2023-01-26T01:38:15;99963.38;;;3.63;60.54
72855;BME280;60991;51.278;22.550;2023-01-26T01:39:47;99961.38;;;3.65;60.64
72855;BME280;60991;51.278;22.550;2023-01-26T01:41:20;99963.66;;;3.68;60.37
72855;BME280;60991;51.278;22.550;2023-01-26T01:42:53;99952.84;;;3.48;60.84
72855;BME280;60991;51.278;22.550;2023-01-26T01:44:24;99959.16;;;3.39;60.96
72855;BME280;60991;51.278;22.550;2023-01-26T01:45:55;99958.25;;;3.32;60.71
72855;BME280;60991;51.278;22.550;2023-01-26T01:47:25;99959.16;;;3.39;60.83
72855;BME280;60991;51.278;22.550;2023-01-26T01:48:58;99960.97;;;3.54;60.58
72855;BME280;60991;51.278;22.550;2023-01-26T01:50:36;99955.56;;;3.55;60.39
72855;BME280;60991;51.278;22.550;2023-01-26T01:52:15;99948.84;;;3.53;60.70
72855;BME280;60991;51.278;22.550;2023-01-26T01:53:49;99945.22;;;3.54;60.76
72855;BME280;60991;51.278;22.550;2023-01-26T01:55:22;99939.72;;;3.48;60.31
72855;BME280;60991;51.278;22.550;2023-01-26T01:56:56;99944.81;;;3.50;60.67
72855;BME280;60991;51.278;22.550;2023-01-26T01:58:29;99942.25;;;3.57;60.49
72855;BME280;60991;51.278;22.550;2023-01-26T02:00:08;99939.72;;;3.48;60.73
72855;BME280;60991;51.278;22.550;2023-01-26T02:01:38;99933.56;;;3.56;60.22
72855;BME280;60991;51.278;22.550;2023-01-26T02:03:09;99942.25;;;3.57;60.18
72855;BME280;60991;51.278;22.550;2023-01-26T02:04:40;99936.47;;;3.61;60.67
72855;BME280;60991;51.278;22.550;2023-01-26T02:06:17;99932.34;;;3.67;60.71
72855;BME280;60991;51.278;22.550;2023-01-26T02:07:49;99936.66;;;3.74;60.24
72855;BME280;60991;51.278;22.550;2023-01-26T02:09:25;99925.44;;;3.66;60.11
72855;BME280;60991;51.278;22.550;2023-01-26T02:11:02;99928.59;;;3.61;60.33
72855;BME280;60991;51.278;22.550;2023-01-26T02:12:34;99919.28;;;3.59;60.70
72855;BME280;60991;51.278;22.550;2023-01-26T02:14:07;99923.19;;;3.63;60.46
72855;BME280;60991;51.278;22.550;2023-01-26T02:15:38;99927.44;;;3.64;60.46
72855;BME280;60991;51.278;22.550;2023-01-26T02:17:09;99924.63;;;3.65;61.05
72855;BME280;60991;51.278;22.550;2023-01-26T02:18:39;99922.81;;;3.66;60.43
72855;BME280;60991;51.278;22.550;2023-01-26T02:20:45;99909.06;;;3.64;60.65
72855;BME280;60991;51.278;22.550;2023-01-26T02:22:44;99910.38;;;3.30;60.12
72855;BME280;60991;51.278;22.550;2023-01-26T02:24:21;99910.19;;;3.32;60.24
72855;BME280;60991;51.278;22.550;2023-01-26T02:25:57;99913.25;;;3.35;59.94
72855;BME280;60991;51.278;22.550;2023-01-26T02:27:28;99917.16;;;3.39;60.38
72855;BME280;60991;51.278;22.550;2023-01-26T02:28:59;99910.44;;;3.37;60.26
72855;BME280;60991;51.278;22.550;2023-01-26T02:30:30;99907.56;;;3.32;59.95
72855;BME280;60991;51.278;22.550;2023-01-26T02:32:01;99912.00;;;3.31;60.00
72855;BME280;60991;51.278;22.550;2023-01-26T02:33:32;99910.59;;;3.21;60.58
72855;BME280;60991;51.278;22.550;2023-01-26T02:35:03;99908.78;;;3.21;60.18
72855;BME280;60991;51.278;22.550;2023-01-26T02:36:33;99912.66;;;3.10;60.57
72855;BME280;60991;51.278;22.550;2023-01-26T02:38:03;99918.03;;;2.94;61.26
72855;BME280;60991;51.278;22.550;2023-01-26T02:39:43;99906.47;;;3.03;60.68
72855;BME280;60991;51.278;22.550;2023-01-26T02:41:17;99910.56;;;3.06;60.45
72855;BME280;60991;51.278;22.550;2023-01-26T02:42:47;99908.69;;;3.15;60.69
72855;BME280;60991;51.278;22.550;2023-01-26T02:44:18;99907.28;;;3.27;59.99
72855;BME280;60991;51.278;22.550;2023-01-26T02:45:48;99909.00;;;3.34;59.73
72855;BME280;60991;51.278;22.550;2023-01-26T02:47:19;99911.91;;;3.39;59.54
72855;BME280;60991;51.278;22.550;2023-01-26T02:48:49;99904.97;;;3.46;60.00
72855;BME280;60991;51.278;22.550;2023-01-26T02:50:19;99903.50;;;3.44;59.63
72855;BME280;60991;51.278;22.550;2023-01-26T02:51:50;99912.50;;;3.50;60.23
72855;BME280;60991;51.278;22.550;2023-01-26T02:53:20;99905.69;;;3.55;60.08
72855;BME280;60991;51.278;22.550;2023-01-26T02:54:51;99910.75;;;3.57;59.75
72855;BME280;60991;51.278;22.550;2023-01-26T02:56:21;99904.31;;;3.44;59.64
72855;BME280;60991;51.278;22.550;2023-01-26T02:57:53;99907.94;;;3.43;60.08
72855;BME280;60991;51.278;22.550;2023-01-26T02:59:24;99902.38;;;3.24;59.59
72855;BME280;60991;51.278;22.550;2023-01-26T03:00:54;99894.63;;;3.30;59.83
72855;BME280;60991;51.278;22.550;2023-01-26T03:02:24;99893.19;;;3.42;59.31
72855;BME280;60991;51.278;22.550;2023-01-26T03:03:55;99882.59;;;3.36;59.23
72855;BME280;60991;51.278;22.550;2023-01-26T03:05:26;99881.88;;;3.04;59.62
72855;BME280;60991;51.278;22.550;2023-01-26T03:06:57;99876.63;;;3.04;59.82
72855;BME280;60991;51.278;22.550;2023-01-26T03:08:27;99881.09;;;3.19;59.66
72855;BME280;60991;51.278;22.550;2023-01-26T03:09:57;99873.53;;;3.24;59.78
72855;BME280;60991;51.278;22.550;2023-01-26T03:11:28;99865.91;;;3.14;59.77
72855;BME280;60991;51.278;22.550;2023-01-26T03:12:58;99864.63;;;3.10;59.72
72855;BME280;60991;51.278;22.550;2023-01-26T03:14:28;99859.84;;;3.13;59.60
72855;BME280;60991;51.278;22.550;2023-01-26T03:15:58;99861.66;;;3.13;59.08
72855;BME280;60991;51.278;22.550;2023-01-26T03:17:28;99862.53;;;3.05;59.68
72855;BME280;60991;51.278;22.550;2023-01-26T03:18:59;99861.72;;;2.82;59.99
72855;BME280;60991;51.278;22.550;2023-01-26T03:20:29;99862.97;;;2.94;60.35
72855;BME280;60991;51.278;22.550;2023-01-26T03:22:00;99850.91;;;2.85;60.20
72855;BME280;60991;51.278;22.550;2023-01-26T03:23:30;99846.81;;;2.83;60.92
72855;BME280;60991;51.278;22.550;2023-01-26T03:25:00;99850.69;;;2.72;60.60
72855;BME280;60991;51.278;22.550;2023-01-26T03:26:31;99844.16;;;2.91;60.32
72855;BME280;60991;51.278;22.550;2023-01-26T03:28:01;99845.16;;;3.04;59.68
72855;BME280;60991;51.278;22.550;2023-01-26T03:29:32;99837.50;;;3.18;59.66
72855;BME280;60991;51.278;22.550;2023-01-26T03:31:05;99836.34;;;3.20;60.31
72855;BME280;60991;51.278;22.550;2023-01-26T03:32:36;99836.19;;;2.99;60.06
72855;BME280;60991;51.278;22.550;2023-01-26T03:34:06;99835.06;;;3.16;59.57
72855;BME280;60991;51.278;22.550;2023-01-26T03:35:36;99837.16;;;3.21;59.93
72855;BME280;60991;51.278;22.550;2023-01-26T03:37:06;99846.75;;;3.28;60.01
72855;BME280;60991;51.278;22.550;2023-01-26T03:38:37;99839.19;;;3.33;60.14
72855;BME280;60991;51.278;22.550;2023-01-26T03:40:08;99843.16;;;3.29;59.87
72855;BME280;60991;51.278;22.550;2023-01-26T03:41:39;99836.84;;;3.16;59.84
72855;BME280;60991;51.278;22.550;2023-01-26T03:43:09;99828.28;;;3.22;59.65
72855;BME280;60991;51.278;22.550;2023-01-26T03:44:39;99822.66;;;3.10;59.96
72855;BME280;60991;51.278;22.550;2023-01-26T03:46:09;99821.94;;;3.16;60.09
72855;BME280;60991;51.278;22.550;2023-01-26T03:47:39;99821.41;;;3.21;60.24
72855;BME280;60991;51.278;22.550;2023-01-26T03:49:10;99817.88;;;3.13;60.06
72855;BME280;60991;51.278;22.550;2023-01-26T03:50:40;99821.03;;;3.09;60.64
72855;BME280;60991;51.278;22.550;2023-01-26T03:52:10;99814.81;;;3.10;60.75
72855;BME280;60991;51.278;22.550;2023-01-26T03:53:42;99814.34;;;3.06;60.47
72855;BME280;60991;51.278;22.550;2023-01-26T03:55:12;99822.66;;;2.95;60.54
72855;BME280;60991;51.278;22.550;2023-01-26T03:56:42;99812.53;;;3.07;60.75
72855;BME280;60991;51.278;22.550;2023-01-26T03:58:12;99818.22;;;2.96;60.87
72855;BME280;60991;51.278;22.550;2023-01-26T03:59:43;99807.28;;;3.07;60.52
72855;BME280;60991;51.278;22.550;2023-01-26T04:01:13;99812.34;;;2.94;60.91
72855;BME280;60991;51.278;22.550;2023-01-26T04:02:44;99809.59;;;2.87;60.38
72855;BME280;60991;51.278;22.550;2023-01-26T04:04:14;99817.28;;;2.89;61.13
72855;BME280;60991;51.278;22.550;2023-01-26T04:05:44;99816.41;;;2.96;61.25
72855;BME280;60991;51.278;22.550;2023-01-26T04:07:14;99820.03;;;2.95;60.51
72855;BME280;60991;51.278;22.550;2023-01-26T04:08:48;99825.19;;;3.03;60.53
72855;BME280;60991;51.278;22.550;2023-01-26T04:10:18;99822.09;;;3.00;61.22
72855;BME280;60991;51.278;22.550;2023-01-26T04:11:48;99816.03;;;2.99;60.72
72855;BME280;60991;51.278;22.550;2023-01-26T04:13:20;99816.00;;;2.85;61.71
72855;BME280;60991;51.278;22.550;2023-01-26T04:14:50;99811.59;;;3.00;60.98
72855;BME280;60991;51.278;22.550;2023-01-26T04:16:21;99813.00;;;3.10;60.39
72855;BME280;60991;51.278;22.550;2023-01-26T04:17:51;99816.50;;;3.18;60.59
72855;BME280;60991;51.278;22.550;2023-01-26T04:19:21;99810.56;;;3.24;60.36
72855;BME280;60991;51.278;22.550;2023-01-26T04:20:51;99811.66;;;3.29;60.85
72855;BME280;60991;51.278;22.550;2023-01-26T04:22:21;99819.06;;;3.26;60.76
72855;BME280;60991;51.278;22.550;2023-01-26T04:23:52;99819.25;;;3.24;60.86
72855;BME280;60991;51.278;22.550;2023-01-26T04:25:23;99811.38;;;3.09;60.95
72855;BME280;60991;51.278;22.550;2023-01-26T04:26:53;99816.44;;;3.11;61.07
72855;BME280;60991;51.278;22.550;2023-01-26T04:28:23;99812.25;;;3.17;60.87
72855;BME280;60991;51.278;22.550;2023-01-26T04:29:53;99805.66;;;3.21;60.92
72855;BME280;60991;51.278;22.550;2023-01-26T04:31:23;99814.28;;;3.29;60.70
72855;BME280;60991;51.278;22.550;2023-01-26T04:32:54;99814.88;;;3.17;60.82
72855;BME280;60991;51.278;22.550;2023-01-26T04:34:24;99810.09;;;3.20;60.59
72855;BME280;60991;51.278;22.550;2023-01-26T04:35:54;99803.03;;;3.06;60.90
72855;BME280;60991;51.278;22.550;2023-01-26T04:37:24;99803.03;;;3.21;60.80
72855;BME280;60991;51.278;22.550;2023-01-26T04:38:55;99814.81;;;3.25;60.98
72855;BME280;60991;51.278;22.550;2023-01-26T04:40:25;99812.84;;;3.27;61.02
72855;BME280;60991;51.278;22.550;2023-01-26T04:41:55;99799.59;;;3.20;60.98
72855;BME280;60991;51.278;22.550;2023-01-26T04:43:26;99801.34;;;3.13;61.41
72855;BME280;60991;51.278;22.550;2023-01-26T04:44:57;99799.41;;;3.07;60.93
72855;BME280;60991;51.278;22.550;2023-01-26T04:46:27;99790.84;;;3.13;61.26
72855;BME280;60991;51.278;22.550;2023-01-26T04:47:57;99795.50;;;2.88;61.83
72855;BME280;60991;51.278;22.550;2023-01-26T04:49:27;99794.94;;;2.78;61.71
72855;BME280;60991;51.278;22.550;2023-01-26T04:51:03;99802.56;;;2.65;61.70
72855;BME280;60991;51.278;22.550;2023-01-26T04:52:34;99799.44;;;2.69;61.62
72855;BME280;60991;51.278;22.550;2023-01-26T04:54:04;99797.84;;;2.60;62.21
72855;BME280;60991;51.278;22.550;2023-01-26T04:55:34;99799.06;;;2.72;61.69
72855;BME280;60991;51.278;22.550;2023-01-26T04:57:05;99807.50;;;2.83;60.94
72855;BME280;60991;51.278;22.550;2023-01-26T04:58:36;99802.22;;;2.68;61.85
72855;BME280;60991;51.278;22.550;2023-01-26T05:00:07;99801.19;;;2.77;62.04
72855;BME280;60991;51.278;22.550;2023-01-26T05:01:37;99800.03;;;2.94;61.28
72855;BME280;60991;51.278;22.550;2023-01-26T05:03:07;99792.69;;;2.90;61.36
72855;BME280;60991;51.278;22.550;2023-01-26T05:04:38;99796.03;;;2.98;61.80
72855;BME280;60991;51.278;22.550;2023-01-26T05:06:08;99792.53;;;3.06;61.35
72855;BME280;60991;51.278;22.550;2023-01-26T05:07:38;99794.47;;;3.12;61.26
72855;BME280;60991;51.278;22.550;2023-01-26T05:09:08;99798.16;;;3.18;61.14
72855;BME280;60991;51.278;22.550;2023-01-26T05:10:39;99791.38;;;3.23;60.59
72855;BME280;60991;51.278;22.550;2023-01-26T05:12:09;99793.38;;;3.21;61.11
72855;BME280;60991;51.278;22.550;2023-01-26T05:13:39;99786.59;;;3.27;60.91
72855;BME280;60991;51.278;22.550;2023-01-26T05:15:09;99782.69;;;3.23;60.97
72855;BME280;60991;51.278;22.550;2023-01-26T05:16:40;99784.31;;;3.24;61.04
72855;BME280;60991;51.278;22.550;2023-01-26T05:18:10;99788.88;;;3.30;61.00
72855;BME280;60991;51.278;22.550;2023-01-26T05:19:40;99785.88;;;3.33;60.91
72855;BME280;60991;51.278;22.550;2023-01-26T05:21:10;99789.75;;;3.37;61.39
72855;BME280;60991;51.278;22.550;2023-01-26T05:22:40;99788.75;;;3.38;61.44
72855;BME280;60991;51.278;22.550;2023-01-26T05:24:11;99785.78;;;3.41;61.43
72855;BME280;60991;51.278;22.550;2023-01-26T05:25:41;99789.13;;;3.35;61.56
72855;BME280;60991;51.278;22.550;2023-01-26T05:27:11;99783.22;;;3.18;61.42
72855;BME280;60991;51.278;22.550;2023-01-26T05:28:41;99786.50;;;3.20;61.25
72855;BME280;60991;51.278;22.550;2023-01-26T05:30:12;99786.03;;;3.17;61.66
72855;BME280;60991;51.278;22.550;2023-01-26T05:31:42;99786.50;;;3.20;61.36
72855;BME280;60991;51.278;22.550;2023-01-26T05:33:13;99784.16;;;3.25;61.66
72855;BME280;60991;51.278;22.550;2023-01-26T05:34:43;99789.84;;;3.29;60.78
72855;BME280;60991;51.278;22.550;2023-01-26T05:36:14;99794.56;;;3.33;60.72
72855;BME280;60991;51.278;22.550;2023-01-26T05:37:44;99793.81;;;3.10;60.77
72855;BME280;60991;51.278;22.550;2023-01-26T05:39:14;99786.66;;;3.04;60.87
72855;BME280;60991;51.278;22.550;2023-01-26T05:40:45;99791.88;;;2.89;61.27
72855;BME280;60991;51.278;22.550;2023-01-26T05:42:15;99791.34;;;2.94;60.77
72855;BME280;60991;51.278;22.550;2023-01-26T05:43:45;99788.78;;;2.86;61.04
72855;BME280;60991;51.278;22.550;2023-01-26T05:45:15;99793.50;;;2.75;60.75
72855;BME280;60991;51.278;22.550;2023-01-26T05:46:51;99796.00;;;2.69;61.43
72855;BME280;60991;51.278;22.550;2023-01-26T05:48:22;99791.63;;;2.61;61.65
72855;BME280;60991;51.278;22.550;2023-01-26T05:49:59;99792.59;;;2.60;61.83
72855;BME280;60991;51.278;22.550;2023-01-26T05:51:29;99793.66;;;2.74;61.44
72855;BME280;60991;51.278;22.550;2023-01-26T05:52:59;99790.53;;;2.56;61.33
72855;BME280;60991;51.278;22.550;2023-01-26T05:54:29;99790.78;;;2.61;60.88
72855;BME280;60991;51.278;22.550;2023-01-26T05:55:59;99788.78;;;2.48;61.43
72855;BME280;60991;51.278;22.550;2023-01-26T05:57:30;99801.66;;;2.58;61.33
72855;BME280;60991;51.278;22.550;2023-01-26T05:59:00;99798.44;;;2.70;60.82
72855;BME280;60991;51.278;22.550;2023-01-26T06:00:30;99786.97;;;2.49;61.53
72855;BME280;60991;51.278;22.550;2023-01-26T06:02:00;99800.41;;;2.46;61.50
72855;BME280;60991;51.278;22.550;2023-01-26T06:03:31;99799.72;;;2.52;61.36
72855;BME280;60991;51.278;22.550;2023-01-26T06:05:01;99797.56;;;2.32;61.68
72855;BME280;60991;51.278;22.550;2023-01-26T06:06:31;99798.91;;;2.28;61.83
72855;BME280;60991;51.278;22.550;2023-01-26T06:08:01;99796.34;;;2.43;61.88
72855;BME280;60991;51.278;22.550;2023-01-26T06:09:32;99789.06;;;2.53;61.13
72855;BME280;60991;51.278;22.550;2023-01-26T06:11:02;99796.84;;;2.61;61.29
72855;BME280;60991;51.278;22.550;2023-01-26T06:12:32;99798.44;;;2.70;60.61
72855;BME280;60991;51.278;22.550;2023-01-26T06:14:03;99792.59;;;2.60;60.88
72855;BME280;60991;51.278;22.550;2023-01-26T06:15:33;99796.00;;;2.69;60.86
72855;BME280;60991;51.278;22.550;2023-01-26T06:17:03;99786.06;;;2.79;61.25
72855;BME280;60991;51.278;22.550;2023-01-26T06:18:33;99793.84;;;2.72;61.25
72855;BME280;60991;51.278;22.550;2023-01-26T06:20:05;99788.50;;;2.81;60.52
72855;BME280;60991;51.278;22.550;2023-01-26T06:21:36;99787.81;;;2.87;60.94
72855;BME280;60991;51.278;22.550;2023-01-26T06:23:09;99789.91;;;2.91;60.90
72855;BME280;60991;51.278;22.550;2023-01-26T06:24:39;99794.38;;;2.83;60.27
72855;BME280;60991;51.278;22.550;2023-01-26T06:26:13;99788.13;;;2.69;60.61
72855;BME280;60991;51.278;22.550;2023-01-26T06:27:43;99783.09;;;2.82;60.52
72855;BME280;60991;51.278;22.550;2023-01-26T06:29:13;99794.50;;;2.89;59.94
72855;BME280;60991;51.278;22.550;2023-01-26T06:30:43;99795.22;;;2.98;59.53
72855;BME280;60991;51.278;22.550;2023-01-26T06:32:14;99793.41;;;2.84;59.92
72855;BME280;60991;51.278;22.550;2023-01-26T06:33:45;99793.34;;;2.92;59.67
72855;BME280;60991;51.278;22.550;2023-01-26T06:35:15;99789.38;;;2.96;59.31
72855;BME280;60991;51.278;22.550;2023-01-26T06:36:45;99793.97;;;2.94;59.94
72855;BME280;60991;51.278;22.550;2023-01-26T06:38:15;99795.06;;;2.99;59.48
72855;BME280;60991;51.278;22.550;2023-01-26T06:39:46;99795.69;;;3.01;59.55
72855;BME280;60991;51.278;22.550;2023-01-26T06:41:16;99806.75;;;2.97;59.40
72855;BME280;60991;51.278;22.550;2023-01-26T06:42:47;99794.97;;;2.93;59.24
72855;BME280;60991;51.278;22.550;2023-01-26T06:44:17;99800.97;;;2.78;59.83
72855;BME280;60991;51.278;22.550;2023-01-26T06:45:48;99795.13;;;2.54;59.83
72855;BME280;60991;51.278;22.550;2023-01-26T06:47:18;99802.81;;;2.55;59.45
72855;BME280;60991;51.278;22.550;2023-01-26T06:48:48;99804.28;;;2.58;59.29
72855;BME280;60991;51.278;22.550;2023-01-26T06:50:21;99798.31;;;2.64;59.25
72855;BME280;60991;51.278;22.550;2023-01-26T06:51:57;99810.91;;;2.46;59.39
72855;BME280;60991;51.278;22.550;2023-01-26T06:53:34;99796.16;;;2.44;59.63
72855;BME280;60991;51.278;22.550;2023-01-26T06:55:15;99796.09;;;2.30;59.81
72855;BME280;60991;51.278;22.550;2023-01-26T06:56:46;99798.03;;;2.36;59.38
72855;BME280;60991;51.278;22.550;2023-01-26T06:58:16;99796.44;;;2.27;59.57
72855;BME280;60991;51.278;22.550;2023-01-26T06:59:46;99798.56;;;2.31;59.07
72855;BME280;60991;51.278;22.550;2023-01-26T07:01:22;99796.63;;;2.48;59.07
72855;BME280;60991;51.278;22.550;2023-01-26T07:02:52;99802.56;;;2.19;59.63
72855;BME280;60991;51.278;22.550;2023-01-26T07:04:24;99798.28;;;1.95;60.36
72855;BME280;60991;51.278;22.550;2023-01-26T07:05:55;99800.53;;;1.67;60.28
72855;BME280;60991;51.278;22.550;2023-01-26T07:07:25;99800.22;;;1.62;60.65
72855;BME280;60991;51.278;22.550;2023-01-26T07:08:55;99798.44;;;1.94;59.80
72855;BME280;60991;51.278;22.550;2023-01-26T07:10:26;99794.63;;;2.04;59.89
72855;BME280;60991;51.278;22.550;2023-01-26T07:11:56;99801.22;;;2.23;59.20
72855;BME280;60991;51.278;22.550;2023-01-26T07:13:26;99797.69;;;2.39;58.95
72855;BME280;60991;51.278;22.550;2023-01-26T07:14:56;99795.81;;;2.48;58.84
72855;BME280;60991;51.278;22.550;2023-01-26T07:16:27;99793.19;;;2.48;58.64
72855;BME280;60991;51.278;22.550;2023-01-26T07:17:57;99795.66;;;2.49;58.90
72855;BME280;60991;51.278;22.550;2023-01-26T07:19:27;99795.00;;;2.47;59.06
72855;BME280;60991;51.278;22.550;2023-01-26T07:21:04;99790.34;;;2.57;59.20
72855;BME280;60991;51.278;22.550;2023-01-26T07:22:34;99800.41;;;2.68;59.24
72855;BME280;60991;51.278;22.550;2023-01-26T07:24:07;99800.72;;;2.73;58.70
72855;BME280;60991;51.278;22.550;2023-01-26T07:25:42;99804.63;;;2.77;59.07
72855;BME280;60991;51.278;22.550;2023-01-26T07:27:12;99802.91;;;2.85;58.99
72855;BME280;60991;51.278;22.550;2023-01-26T07:28:42;99801.56;;;2.89;58.74
72855;BME280;60991;51.278;22.550;2023-01-26T07:30:21;99805.00;;;2.89;58.42
72855;BME280;60991;51.278;22.550;2023-01-26T07:31:52;99801.91;;;2.86;57.61
72855;BME280;60991;51.278;22.550;2023-01-26T07:33:22;99803.06;;;2.83;57.70
72855;BME280;60991;51.278;22.550;2023-01-26T07:34:52;99800.63;;;2.82;57.51
72855;BME280;60991;51.278;22.550;2023-01-26T07:36:22;99802.03;;;2.69;57.53
72855;BME280;60991;51.278;22.550;2023-01-26T07:37:54;99798.56;;;2.54;58.49
72855;BME280;60991;51.278;22.550;2023-01-26T07:39:25;99796.94;;;2.53;57.99
72855;BME280;60991;51.278;22.550;2023-01-26T07:40:56;99800.41;;;2.46;57.58
72855;BME280;60991;51.278;22.550;2023-01-26T07:42:26;99803.94;;;2.38;57.89
72855;BME280;60991;51.278;22.550;2023-01-26T07:43:56;99801.13;;;2.39;58.22
72855;BME280;60991;51.278;22.550;2023-01-26T07:45:30;99797.97;;;2.21;58.38
72855;BME280;60991;51.278;22.550;2023-01-26T07:47:00;99785.66;;;1.99;59.18
72855;BME280;60991;51.278;22.550;2023-01-26T07:48:31;99790.16;;;2.13;59.26
72855;BME280;60991;51.278;22.550;2023-01-26T07:50:02;99784.97;;;2.28;58.42
72855;BME280;60991;51.278;22.550;2023-01-26T07:51:32;99787.78;;;2.26;59.01
72855;BME280;60991;51.278;22.550;2023-01-26T07:53:02;99782.78;;;2.39;58.81
72855;BME280;60991;51.278;22.550;2023-01-26T07:54:33;99779.59;;;2.52;58.72
72855;BME280;60991;51.278;22.550;2023-01-26T07:56:11;99776.69;;;2.62;58.24
72855;BME280;60991;51.278;22.550;2023-01-26T07:57:41;99777.00;;;2.67;58.30
72855;BME280;60991;51.278;22.550;2023-01-26T07:59:11;99772.19;;;2.56;58.58
72855;BME280;60991;51.278;22.550;2023-01-26T08:00:42;99775.19;;;2.44;58.46
72855;BME280;60991;51.278;22.550;2023-01-26T08:02:12;99768.28;;;2.52;57.50
72855;BME280;60991;51.278;22.550;2023-01-26T08:03:42;99769.91;;;2.53;57.91